Time;durP1;ratioP1;P1;durP2;ratioP2;P2;SDS_P1;SDS_P2;PMS_P1;PMS_P2;Temp;Humidity;BMP_temperature;BMP_pressure;BME280_temperature;BME280_humidity;BME280_pressure;Samples;Min_cycle;Max_cycle;Signal;HPM_P1;HPM_P2
2022/07/06 00:01:45;;;;;;;6.85;1.80;;;15.40;99.90;;;;;;9183142;19;20014;-73
2022/07/06 00:04:51;;;;;;;7.55;1.65;;;15.20;99.90;;;;;;9187725;19;20003;-72
2022/07/06 00:07:55;;;;;;;5.43;1.80;;;15.30;99.90;;;;;;9183376;19;20389;-73
2022/07/06 00:10:59;;;;;;;4.57;1.70;;;15.40;99.90;;;;;;9184164;19;20022;-72
2022/07/06 00:14:03;;;;;;;3.42;1.50;;;15.80;99.90;;;;;;9181716;19;20006;-73
2022/07/06 00:17:07;;;;;;;4.60;1.67;;;15.40;99.90;;;;;;9182771;19;20022;-73
2022/07/06 00:20:14;;;;;;;10.27;2.00;;;14.90;99.90;;;;;;9182911;19;20020;-72
2022/07/06 00:23:18;;;;;;;4.85;1.95;;;15.10;99.90;;;;;;9181186;19;20349;-73
2022/07/06 00:26:22;;;;;;;6.90;1.63;;;15.00;99.90;;;;;;9185175;19;20022;-73
2022/07/06 00:29:26;;;;;;;4.45;1.48;;;14.80;99.90;;;;;;9180528;19;20014;-72
2022/07/06 00:32:30;;;;;;;5.43;1.60;;;14.50;99.90;;;;;;9181001;19;20010;-73
2022/07/06 00:35:36;;;;;;;2.90;1.10;;;14.40;99.90;;;;;;9180881;19;20405;-72
2022/07/06 00:38:41;;;;;;;3.40;1.10;;;14.50;99.90;;;;;;9184655;19;20051;-72
2022/07/06 00:41:45;;;;;;;3.28;1.20;;;14.40;99.90;;;;;;9182953;19;20538;-73
2022/07/06 00:44:49;;;;;;;3.70;1.10;;;14.50;99.90;;;;;;9181272;19;20041;-73
2022/07/06 00:47:53;;;;;;;4.50;1.20;;;14.50;99.90;;;;;;9178244;19;20007;-73
2022/07/06 00:50:59;;;;;;;2.95;0.90;;;14.70;99.90;;;;;;9181270;19;20010;-72
2022/07/06 00:54:07;;;;;;;5.38;0.93;;;14.80;99.90;;;;;;9177998;19;20014;-72
2022/07/06 00:57:11;;;;;;;2.63;1.20;;;14.90;99.90;;;;;;9177995;19;20011;-72
2022/07/06 01:00:17;;;;;;;2.63;1.08;;;14.70;99.90;;;;;;9183162;19;20014;-73
2022/07/06 01:03:21;;;;;;;3.80;1.20;;;14.70;99.90;;;;;;9183479;19;20344;-73
2022/07/06 01:06:28;;;;;;;6.25;1.67;;;14.80;99.90;;;;;;9182743;19;20299;-72
2022/07/06 01:09:31;;;;;;;4.43;1.38;;;14.80;99.90;;;;;;9179260;19;20078;-73
2022/07/06 01:12:38;;;;;;;6.05;1.20;;;14.90;99.90;;;;;;9182728;19;20090;-73
2022/07/06 01:15:42;;;;;;;3.25;1.38;;;14.90;99.90;;;;;;9180884;19;20018;-73
2022/07/06 01:18:46;;;;;;;3.10;1.38;;;14.70;99.90;;;;;;9175666;19;20017;-72
2022/07/06 01:21:53;;;;;;;3.33;1.20;;;14.80;99.90;;;;;;9183444;19;20021;-73
2022/07/06 01:24:57;;;;;;;2.97;1.20;;;14.70;99.90;;;;;;9179707;19;20542;-72
2022/07/06 01:28:01;;;;;;;3.22;1.23;;;14.90;99.90;;;;;;9177949;19;20014;-73
2022/07/06 01:31:05;;;;;;;3.55;1.38;;;14.80;99.90;;;;;;9181610;19;20014;-73
2022/07/06 01:34:08;;;;;;;4.05;1.10;;;14.80;99.90;;;;;;9183010;19;20011;-73
2022/07/06 01:37:15;;;;;;;4.15;1.20;;;14.80;99.90;;;;;;9182807;19;20026;-73
2022/07/06 01:40:20;;;;;;;3.83;1.20;;;14.40;99.90;;;;;;9179259;19;20011;-73
2022/07/06 01:43:24;;;;;;;5.47;1.40;;;14.70;99.90;;;;;;9178585;19;20463;-73
2022/07/06 01:46:27;;;;;;;2.53;1.00;;;14.40;99.90;;;;;;9177114;19;20018;-73
2022/07/06 01:49:31;;;;;;;6.07;1.55;;;14.70;99.90;;;;;;9177680;19;20404;-73
2022/07/06 01:52:38;;;;;;;3.42;1.10;;;14.90;99.90;;;;;;9177143;19;20025;-73
2022/07/06 01:55:42;;;;;;;3.33;1.20;;;;;;;;;;9177443;19;20014;-73
2022/07/06 01:58:46;;;;;;;5.25;1.52;;;14.60;99.90;;;;;;9178968;19;20029;-73
2022/07/06 02:01:53;;;;;;;5.57;1.08;;;14.20;99.90;;;;;;9183963;19;20018;-72
2022/07/06 02:04:57;;;;;;;4.25;1.20;;;14.50;99.90;;;;;;9180008;19;20046;-73
2022/07/06 02:08:03;;;;;;;2.97;1.10;;;14.80;99.90;;;;;;9185935;19;20010;-72
2022/07/06 02:11:08;;;;;;;5.10;1.30;;;14.10;99.90;;;;;;9188821;19;20025;-72
2022/07/06 02:14:12;;;;;;;2.42;1.10;;;14.50;99.90;;;;;;9191550;19;20015;-73
2022/07/06 02:17:16;;;;;;;2.03;1.10;;;14.70;99.90;;;;;;9185016;19;20363;-73
2022/07/06 02:20:20;;;;;;;4.63;1.27;;;14.60;99.90;;;;;;9187096;19;20011;-73
2022/07/06 02:23:26;;;;;;;2.47;1.38;;;14.40;99.90;;;;;;9187363;19;20028;-73
2022/07/06 02:26:30;;;;;;;5.47;1.30;;;14.40;99.90;;;;;;9185679;19;20094;-73
2022/07/06 02:29:34;;;;;;;4.32;1.30;;;14.30;99.90;;;;;;9189212;19;20047;-72
2022/07/06 02:32:38;;;;;;;3.80;1.20;;;14.40;99.90;;;;;;9190402;19;20379;-72
2022/07/06 02:35:42;;;;;;;4.65;1.60;;;14.30;99.90;;;;;;9187468;19;20038;-72
2022/07/06 02:38:49;;;;;;;3.92;1.30;;;14.40;99.90;;;;;;9185341;19;20013;-72
2022/07/06 02:41:53;;;;;;;2.35;1.20;;;14.40;99.90;;;;;;9187656;19;20037;-73
2022/07/06 02:44:57;;;;;;;4.78;1.58;;;14.50;99.90;;;;;;9185189;19;20055;-73
2022/07/06 02:48:02;;;;;;;3.55;1.40;;;14.40;99.90;;;;;;9185840;19;20066;-73
2022/07/06 02:51:05;;;;;;;3.67;1.20;;;14.50;99.90;;;;;;9182016;19;20011;-72
2022/07/06 02:54:12;;;;;;;8.52;1.88;;;14.40;99.90;;;;;;9184768;19;20022;-72
2022/07/06 02:57:16;;;;;;;6.47;1.48;;;14.60;99.90;;;;;;9188329;19;20626;-72
2022/07/06 03:00:20;;;;;;;5.18;1.55;;;14.30;99.90;;;;;;9185027;19;20011;-72
2022/07/06 03:03:24;;;;;;;3.63;1.17;;;14.40;99.90;;;;;;9187264;19;20022;-73
2022/07/06 03:06:28;;;;;;;4.95;1.60;;;14.70;99.90;;;;;;9185571;19;20532;-72
2022/07/06 03:09:34;;;;;;;5.43;1.40;;;14.10;99.90;;;;;;9184014;19;20044;-72
2022/07/06 03:12:38;;;;;;;3.58;1.27;;;14.10;99.90;;;;;;9186302;19;20018;-72
2022/07/06 03:15:42;;;;;;;6.25;1.20;;;14.20;99.90;;;;;;9186168;19;20021;-72
2022/07/06 03:18:46;;;;;;;5.32;1.20;;;14.20;99.90;;;;;;9178447;19;20045;-73
2022/07/06 03:21:52;;;;;;;3.85;1.17;;;14.20;99.90;;;;;;9184457;19;20010;-72
2022/07/06 03:24:59;;;;;;;4.47;1.38;;;14.20;99.90;;;;;;9182895;19;20498;-72
2022/07/06 03:28:02;;;;;;;4.90;1.13;;;14.10;99.90;;;;;;9186986;19;20091;-73
2022/07/06 03:31:06;;;;;;;5.68;1.30;;;14.20;99.90;;;;;;9184123;19;20019;-72
2022/07/06 03:34:10;;;;;;;3.17;1.08;;;14.10;99.90;;;;;;9186858;19;20025;-72
2022/07/06 03:37:14;;;;;;;3.92;1.40;;;14.10;99.90;;;;;;9186375;19;20010;-73
2022/07/06 03:40:21;;;;;;;7.28;1.10;;;14.10;99.90;;;;;;9182918;19;20116;-72
2022/07/06 03:43:26;;;;;;;6.82;1.25;;;13.90;99.90;;;;;;9183168;19;20534;-72
2022/07/06 03:46:31;;;;;;;3.85;1.15;;;13.80;99.90;;;;;;9183488;19;20420;-73
2022/07/06 03:49:35;;;;;;;6.43;1.30;;;14.00;99.90;;;;;;9182652;19;20014;-72
2022/07/06 03:52:40;;;;;;;2.45;1.00;;;13.80;99.90;;;;;;9183026;19;20014;-72
2022/07/06 03:56:27;;;;;;;5.45;1.00;;;13.90;99.90;;;;;;9181432;19;20018;-72
2022/07/06 03:59:11;;;;;;;5.50;1.30;;;13.70;99.90;;;;;;9182328;19;20018;-72
2022/07/06 04:02:15;;;;;;;4.20;1.35;;;13.80;99.90;;;;;;9184364;19;20014;-73
2022/07/06 04:05:21;;;;;;;3.58;1.50;;;13.70;99.90;;;;;;9182943;19;20086;-72
2022/07/06 04:08:24;;;;;;;3.20;1.10;;;13.80;99.90;;;;;;9179844;19;20015;-73
2022/07/06 04:11:31;;;;;;;3.72;1.30;;;13.60;99.90;;;;;;9181733;19;20015;-72
2022/07/06 04:14:35;;;;;;;4.13;1.40;;;13.60;99.90;;;;;;9182042;19;20034;-72
2022/07/06 04:20:57;;;;;;;5.43;1.23;;;13.30;99.90;;;;;;9181853;19;20015;-72
2022/07/06 04:24:01;;;;;;;2.40;1.45;;;;;;;;;;9186387;19;20015;-72
2022/07/06 04:27:07;;;;;;;4.88;1.40;;;13.60;99.90;;;;;;9182664;19;20464;-72
2022/07/06 04:30:12;;;;;;;3.22;1.70;;;13.50;99.90;;;;;;9181931;19;20376;-73
2022/07/06 04:33:16;;;;;;;5.13;1.55;;;13.70;99.90;;;;;;9184713;19;20022;-72
2022/07/06 04:36:20;;;;;;;3.95;1.30;;;13.60;99.90;;;;;;9181174;19;20007;-72
2022/07/06 04:39:24;;;;;;;4.82;1.45;;;13.70;99.90;;;;;;9182120;19;20538;-72
2022/07/06 04:42:31;;;;;;;7.40;1.45;;;13.60;99.90;;;;;;9180179;19;20014;-73
2022/07/06 04:45:35;;;;;;;5.15;1.67;;;13.60;99.90;;;;;;9181091;19;20024;-72
2022/07/06 04:48:40;;;;;;;3.22;1.48;;;13.50;99.90;;;;;;9178389;19;20058;-72
2022/07/06 04:51:44;;;;;;;6.07;1.48;;;13.50;99.90;;;;;;9181153;19;20025;-73
2022/07/06 04:54:47;;;;;;;7.50;2.15;;;13.60;99.90;;;;;;9179959;19;20014;-73
2022/07/06 04:57:54;;;;;;;2.90;1.35;;;13.60;99.90;;;;;;9184564;19;20091;-73
2022/07/06 05:00:59;;;;;;;5.75;1.50;;;13.60;99.90;;;;;;9179196;19;20018;-72
2022/07/06 05:04:02;;;;;;;3.05;1.60;;;13.60;99.90;;;;;;9182619;19;20018;-73
2022/07/06 05:07:06;;;;;;;5.28;1.50;;;13.80;99.90;;;;;;9184161;19;20013;-73
2022/07/06 05:10:12;;;;;;;6.00;1.63;;;13.90;99.90;;;;;;9181049;19;20078;-73
2022/07/06 05:13:18;;;;;;;4.18;1.48;;;13.70;99.90;;;;;;9182151;19;20017;-72
2022/07/06 05:16:22;;;;;;;4.72;1.70;;;13.80;99.90;;;;;;9180216;19;20507;-73
2022/07/06 05:19:26;;;;;;;4.55;1.35;;;13.70;99.90;;;;;;9178639;19;20014;-73
2022/07/06 05:22:30;;;;;;;2.38;1.30;;;13.70;99.90;;;;;;9181255;19;20074;-73
2022/07/06 05:25:35;;;;;;;4.45;1.27;;;13.70;99.90;;;;;;9178832;19;20014;-73
2022/07/06 05:28:42;;;;;;;3.95;1.50;;;13.80;99.90;;;;;;9179537;19;20014;-73
2022/07/06 05:31:46;;;;;;;4.07;1.20;;;13.40;99.90;;;;;;9179983;19;20090;-74
2022/07/06 05:34:50;;;;;;;5.10;1.60;;;13.50;99.90;;;;;;9179148;19;20038;-73
2022/07/06 05:37:54;;;;;;;5.10;1.50;;;13.60;99.90;;;;;;9180657;19;20022;-71
2022/07/06 05:40:57;;;;;;;6.32;1.50;;;13.50;99.90;;;;;;9179840;19;20397;-71
2022/07/06 05:44:04;;;;;;;7.68;1.75;;;13.60;99.90;;;;;;9177729;19;20542;-71
2022/07/06 05:50:25;;;;;;;30.30;4.25;;;13.70;99.90;;;;;;9178197;19;20048;-71
2022/07/06 05:53:29;;;;;;;6.63;1.60;;;13.60;99.90;;;;;;9177257;19;20011;-71
2022/07/06 05:56:33;;;;;;;21.70;3.30;;;13.70;99.90;;;;;;9177255;19;20050;-71
2022/07/06 05:59:39;;;;;;;10.55;1.92;;;13.70;99.90;;;;;;9178323;19;20011;-71
2022/07/06 06:02:45;;;;;;;3.70;1.30;;;13.70;99.90;;;;;;9180273;19;20034;-71
2022/07/06 06:05:49;;;;;;;11.75;2.20;;;13.90;99.90;;;;;;9182393;19;20511;-71
2022/07/06 06:08:53;;;;;;;2.17;0.85;;;14.00;99.90;;;;;;9175862;19;20026;-71
2022/07/06 06:11:57;;;;;;;3.53;1.00;;;13.90;99.90;;;;;;9176064;19;20524;-73
2022/07/06 06:15:03;;;;;;;2.53;0.57;;;14.00;99.90;;;;;;9177792;19;20173;-72
2022/07/06 06:18:07;;;;;;;4.80;0.93;;;14.20;99.90;;;;;;9181421;19;20022;-70
2022/07/06 06:21:13;;;;;;;1.55;0.60;;;14.20;99.90;;;;;;9176739;19;20515;-71
2022/07/06 06:24:16;;;;;;;3.13;0.70;;;14.30;99.90;;;;;;9181705;19;20010;-70
2022/07/06 06:27:21;;;;;;;4.47;0.68;;;15.60;99.90;;;;;;9178591;19;20086;-70
2022/07/06 06:30:27;;;;;;;3.13;0.60;;;14.20;99.90;;;;;;9177734;19;20389;-70
2022/07/06 06:33:32;;;;;;;1.90;0.85;;;14.30;99.90;;;;;;9181101;19;20019;-71
2022/07/06 06:36:35;;;;;;;5.85;0.93;;;14.40;99.90;;;;;;9176039;19;20010;-71
2022/07/06 06:39:39;;;;;;;5.32;0.95;;;14.40;99.90;;;;;;9178150;19;20448;-70
2022/07/06 06:42:43;;;;;;;1.38;0.60;;;14.40;99.90;;;;;;9177353;19;20037;-70
2022/07/06 06:45:50;;;;;;;2.15;0.80;;;14.00;99.90;;;;;;9175963;19;20014;-71
2022/07/06 06:48:54;;;;;;;3.00;0.90;;;14.30;99.90;;;;;;9178361;19;20007;-71
2022/07/06 06:51:58;;;;;;;2.90;1.02;;;14.30;99.90;;;;;;9176691;19;20015;-70
2022/07/06 06:55:02;;;;;;;5.15;1.20;;;14.40;99.90;;;;;;9184934;19;20009;-70
2022/07/06 06:58:06;;;;;;;4.35;1.00;;;14.20;99.90;;;;;;9187011;19;20018;-71
2022/07/06 07:01:13;;;;;;;4.07;1.00;;;14.40;99.90;;;;;;9185625;19;20018;-71
2022/07/06 07:04:17;;;;;;;1.75;0.90;;;14.00;99.90;;;;;;9189806;19;20390;-71
2022/07/06 07:07:21;;;;;;;3.55;0.93;;;14.20;99.90;;;;;;9183364;19;20136;-71
2022/07/06 07:10:25;;;;;;;2.20;0.73;;;14.40;99.90;;;;;;9183470;19;20086;-70
2022/07/06 07:13:29;;;;;;;2.80;0.88;;;13.90;99.90;;;;;;9188356;19;20609;-70
2022/07/06 07:16:35;;;;;;;1.63;0.80;;;14.10;99.90;;;;;;9184328;19;20483;-71
2022/07/06 07:19:39;;;;;;;4.15;1.13;;;13.80;99.90;;;;;;9189030;19;20487;-71
2022/07/06 07:22:43;;;;;;;2.97;1.00;;;14.00;99.90;;;;;;9183931;19;20632;-71
2022/07/06 07:25:47;;;;;;;7.10;1.05;;;14.10;99.90;;;;;;9183380;19;20054;-71
2022/07/06 07:28:51;;;;;;;3.70;0.90;;;14.00;99.90;;;;;;9186571;19;20376;-71
2022/07/06 07:31:57;;;;;;;2.42;0.90;;;14.10;99.90;;;;;;9183931;19;20013;-72
2022/07/06 07:35:02;;;;;;;1.92;0.80;;;13.90;99.90;;;;;;9184181;19;20025;-71
2022/07/06 07:38:06;;;;;;;1.83;1.00;;;14.00;99.90;;;;;;9183357;19;20011;-71
2022/07/06 07:41:13;;;;;;;3.92;0.98;;;14.00;99.90;;;;;;9188025;19;20014;-72
2022/07/06 07:44:17;;;;;;;4.18;1.20;;;14.00;99.90;;;;;;9182670;19;20047;-71
2022/07/06 07:47:24;;;;;;;1.38;0.80;;;14.40;99.90;;;;;;9183980;19;20078;-70
2022/07/06 07:50:29;;;;;;;5.85;1.00;;;14.00;99.90;;;;;;9184455;19;20011;-70
2022/07/06 07:53:33;;;;;;;3.85;1.08;;;14.20;99.90;;;;;;9182627;19;20010;-70
2022/07/06 07:56:37;;;;;;;1.98;0.77;;;14.20;99.90;;;;;;9184703;19;20037;-71
2022/07/06 07:59:42;;;;;;;2.75;0.82;;;14.30;99.90;;;;;;9187011;19;20015;-70
2022/07/06 08:02:48;;;;;;;3.97;1.00;;;14.30;99.90;;;;;;9186536;19;20021;-71
2022/07/06 08:05:52;;;;;;;3.60;1.00;;;14.30;99.90;;;;;;9181129;19;20014;-70
2022/07/06 08:08:56;;;;;;;3.85;1.27;;;14.50;99.90;;;;;;9183610;19;20022;-70
2022/07/06 08:12:00;;;;;;;4.32;1.08;;;14.50;99.90;;;;;;9182936;19;20025;-70
2022/07/06 08:15:04;;;;;;;3.83;1.10;;;14.60;99.90;;;;;;9181730;19;20014;-71
2022/07/06 08:18:11;;;;;;;3.25;1.20;;;14.70;99.90;;;;;;9178603;19;20025;-71
2022/07/06 08:21:15;;;;;;;;;;;14.80;99.90;;;;;;9185662;19;20026;-71
2022/07/06 08:24:19;;;;;;;5.88;1.23;;;15.00;99.90;;;;;;9185564;19;19915;-71
2022/07/06 08:27:23;;;;;;;4.15;1.02;;;15.00;99.90;;;;;;9179922;19;20022;-72
2022/07/06 08:30:28;;;;;;;2.95;0.90;;;15.30;99.90;;;;;;9178786;19;20475;-71
2022/07/06 08:33:34;;;;;;;5.43;0.75;;;15.50;99.90;;;;;;9180933;19;20507;-71
2022/07/06 08:36:38;;;;;;;6.75;1.10;;;15.30;99.90;;;;;;9180820;19;20367;-72
2022/07/06 08:39:42;;;;;;;4.80;0.93;;;15.40;99.90;;;;;;9184861;19;20034;-72
2022/07/06 08:42:53;;;;;;;4.03;0.90;;;15.60;99.90;;;;;;9180127;19;20089;-71
2022/07/06 08:45:57;;;;;;;2.45;1.00;;;15.70;99.90;;;;;;9180792;19;20108;-72
2022/07/06 08:49:04;;;;;;;4.22;0.90;;;15.60;99.90;;;;;;9181940;19;20447;-72
2022/07/06 08:52:10;;;;;;;2.40;0.70;;;15.70;99.90;;;;;;9180574;19;20112;-72
2022/07/06 08:55:15;;;;;;;3.50;0.80;;;15.70;99.90;;;;;;9182436;19;20038;-71
2022/07/06 08:58:19;;;;;;;2.92;0.85;;;15.70;99.90;;;;;;9180256;19;20010;-71
2022/07/06 09:01:23;;;;;;;3.35;0.93;;;15.80;99.90;;;;;;9180788;19;20022;-71
2022/07/06 09:04:32;;;;;;;3.95;1.05;;;15.70;99.90;;;;;;9181491;19;20052;-72
2022/07/06 09:07:37;;;;;;;2.13;0.70;;;15.90;99.90;;;;;;9184837;19;20010;-71
2022/07/06 09:10:41;;;;;;;4.03;0.95;;;15.90;99.90;;;;;;9176991;19;20023;-72
2022/07/06 09:13:45;;;;;;;2.85;1.00;;;15.70;99.90;;;;;;9180075;19;20382;-71
2022/07/06 09:16:53;;;;;;;4.35;0.82;;;15.70;99.90;;;;;;9175993;19;20030;-71
2022/07/06 09:20:00;;;;;;;2.85;0.70;;;15.70;99.90;;;;;;9179177;19;20021;-72
2022/07/06 09:23:06;;;;;;;1.05;0.50;;;15.90;99.90;;;;;;9180383;19;20511;-71
2022/07/06 09:26:10;;;;;;;4.18;0.80;;;15.80;99.90;;;;;;9179403;19;20026;-71
2022/07/06 09:29:14;;;;;;;2.25;0.70;;;16.10;99.90;;;;;;9179740;19;20014;-71
2022/07/06 09:32:22;;;;;;;5.55;1.13;;;15.90;99.90;;;;;;9181192;19;20018;-71
2022/07/06 09:35:31;;;;;;;7.85;2.55;;;16.00;99.90;;;;;;9178045;19;20010;-71
2022/07/06 09:38:35;;;;;;;1.20;0.70;;;16.00;99.90;;;;;;9177668;19;20014;-72
2022/07/06 09:41:39;;;;;;;3.92;1.25;;;16.10;99.90;;;;;;9180836;19;20541;-72
2022/07/06 09:44:44;;;;;;;7.57;1.35;;;16.50;99.90;;;;;;9182558;19;20024;-71
2022/07/06 09:47:49;;;;;;;2.90;0.80;;;16.40;99.90;;;;;;9177978;19;20021;-72
2022/07/06 09:50:57;;;;;;;3.63;1.23;;;16.50;99.90;;;;;;9175440;19;20021;-72
2022/07/06 09:54:02;;;;;;;3.40;0.85;;;16.40;99.90;;;;;;9178911;19;20042;-71
2022/07/06 09:57:07;;;;;;;4.25;1.00;;;16.30;99.90;;;;;;9177581;19;20086;-71
2022/07/06 10:00:13;;;;;;;3.47;0.90;;;16.30;99.90;;;;;;9176975;19;20413;-72
2022/07/06 10:03:18;;;;;;;3.15;0.77;;;16.40;99.90;;;;;;9179017;19;20021;-72
2022/07/06 10:06:27;;;;;;;2.67;0.82;;;16.60;99.90;;;;;;9179435;19;20014;-72
2022/07/06 10:09:32;;;;;;;4.82;1.00;;;16.90;99.90;;;;;;9174245;19;20015;-72
2022/07/06 10:12:36;;;;;;;3.40;1.17;;;16.60;99.90;;;;;;9177517;19;20840;-69
2022/07/06 10:15:42;;;;;;;3.35;1.23;;;16.90;99.90;;;;;;9176462;19;20011;-70
2022/07/06 10:18:47;;;;;;;4.75;1.45;;;16.70;99.20;;;;;;9165085;19;20420;-71
2022/07/06 10:21:54;;;;;;;4.18;1.20;;;16.90;99.20;;;;;;9167457;19;20070;-70
2022/07/06 10:24:59;;;;;;;;;;;17.00;99.70;;;;;;9170494;19;20511;-70
2022/07/06 10:28:10;;;;;;;4.40;1.50;;;17.10;98.30;;;;;;8935971;19;20406;-71
2022/07/06 10:31:15;;;;;;;3.58;1.05;;;17.00;99.10;;;;;;9184069;19;20021;-71
2022/07/06 10:34:21;;;;;;;6.93;1.30;;;17.30;98.90;;;;;;9187416;19;20014;-71
2022/07/06 10:37:32;;;;;;;3.60;1.20;;;17.10;98.20;;;;;;9178913;19;20018;-70
2022/07/06 10:43:56;;;;;;;2.80;1.08;;;17.20;99.10;;;;;;9183170;19;20026;-70
2022/07/06 10:47:01;;;;;;;4.57;1.17;;;17.20;99.10;;;;;;9182608;19;20010;-70
2022/07/06 10:50:06;;;;;;;5.18;1.00;;;17.20;99.40;;;;;;9184569;19;20025;-70
2022/07/06 10:53:17;;;;;;;2.58;1.00;;;17.00;99.90;;;;;;9181508;19;20022;-70
2022/07/06 10:56:35;;;;;;;5.47;1.33;;;17.10;99.90;;;;;;9186448;19;20018;-71
2022/07/06 10:59:39;;;;;;;4.22;0.85;;;17.10;99.90;;;;;;9188317;19;20034;-71
2022/07/06 11:02:43;;;;;;;2.38;0.80;;;17.30;99.90;;;;;;9185014;19;20007;-70
2022/07/06 11:05:47;;;;;;;2.47;1.05;;;17.70;99.90;;;;;;9186108;19;20041;-69
2022/07/06 11:08:58;;;;;;;3.30;0.90;;;17.60;99.50;;;;;;9183929;19;20030;-70
2022/07/06 11:12:15;;;;;;;3.60;1.13;;;17.60;99.20;;;;;;9180253;19;20015;-71
2022/07/06 11:15:49;;;;;;;6.88;1.50;;;17.80;99.80;;;;;;9181699;19;20019;-70
2022/07/06 11:19:06;;;;;;;4.38;1.05;;;17.70;98.40;;;;;;9177402;19;20388;-71
2022/07/06 11:22:12;;;;;;;2.35;0.95;;;17.90;99.90;;;;;;9176196;19;20526;-72
2022/07/06 11:25:19;;;;;;;5.45;1.10;;;18.10;99.20;;;;;;9182539;19;20018;-70
2022/07/06 11:28:23;;;;;;;3.35;0.93;;;18.10;98.70;;;;;;9185344;19;20010;-70
2022/07/06 11:31:27;;;;;;;2.72;0.82;;;18.10;98.80;;;;;;9179459;19;20015;-70
2022/07/06 11:34:33;;;;;;;3.45;0.80;;;18.40;99.20;;;;;;9187038;19;20055;-70
2022/07/06 11:37:38;;;;;;;2.42;1.10;;;18.20;98.10;;;;;;9175070;19;20014;-71
2022/07/06 11:40:44;;;;;;;3.75;1.30;;;18.00;98.40;;;;;;9183859;19;20014;-70
2022/07/06 11:43:51;;;;;;;2.40;1.17;;;17.90;99.20;;;;;;9185994;19;20018;-71
2022/07/06 11:46:56;;;;;;;5.10;1.42;;;17.90;99.60;;;;;;9175210;19;20014;-70
2022/07/06 11:50:00;;;;;;;5.93;1.40;;;18.10;98.90;;;;;;9183636;19;20097;-71
2022/07/06 11:53:04;;;;;;;3.47;1.30;;;18.00;97.50;;;;;;9177567;19;20018;-71
2022/07/06 11:56:11;;;;;;;3.90;1.27;;;17.90;97.30;;;;;;9182557;19;20011;-70
2022/07/06 11:59:18;;;;;;;5.43;1.10;;;18.00;97.50;;;;;;9183045;19;20368;-70
2022/07/06 12:02:22;;;;;;;5.88;1.23;;;17.80;97.30;;;;;;9183139;19;20363;-70
2022/07/06 12:05:32;;;;;;;3.25;1.20;;;18.10;97.40;;;;;;9186918;19;20018;-71
2022/07/06 12:08:44;;;;;;;8.48;2.63;;;18.60;97.80;;;;;;9186795;19;20041;-71
2022/07/06 12:11:51;;;;;;;2.25;1.05;;;18.70;96.90;;;;;;9181980;19;20104;-71
2022/07/06 12:14:56;;;;;;;3.30;1.10;;;18.60;96.30;;;;;;9182446;19;20018;-71
2022/07/06 12:18:00;;;;;;;4.38;1.60;;;18.10;96.40;;;;;;9185083;19;20015;-71
2022/07/06 12:21:04;;;;;;;4.05;1.10;;;17.90;96.20;;;;;;9180749;19;20019;-71
2022/07/06 12:24:10;;;;;;;2.42;1.00;;;18.10;96.70;;;;;;9184423;19;20014;-72
2022/07/06 12:27:18;;;;;;;4.38;1.10;;;18.10;97.30;;;;;;9185663;19;20019;-71
2022/07/06 12:30:23;;;;;;;5.10;1.50;;;18.20;97.80;;;;;;9184627;19;20521;-71
2022/07/06 12:33:27;;;;;;;4.47;1.30;;;18.00;97.80;;;;;;9184758;19;20022;-71
2022/07/06 12:36:31;;;;;;;3.85;0.98;;;18.40;97.80;;;;;;9181603;19;20026;-71
2022/07/06 12:39:42;;;;;;;4.05;0.90;;;18.50;96.90;;;;;;9183151;19;20475;-72
2022/07/06 12:42:51;;;;;;;4.32;1.17;;;18.40;96.60;;;;;;9179661;19;20471;-72
2022/07/06 12:45:55;;;;;;;2.53;0.80;;;18.10;96.50;;;;;;9180424;19;20044;-72
2022/07/06 12:49:00;;;;;;;2.00;0.98;;;18.10;96.70;;;;;;9180025;19;20010;-73
2022/07/06 12:52:05;;;;;;;5.80;1.20;;;18.10;96.70;;;;;;9178955;19;20018;-71
2022/07/06 12:55:12;;;;;;;5.75;1.30;;;18.60;97.20;;;;;;9176690;19;20018;-71
2022/07/06 12:58:23;;;;;;;8.02;1.13;;;18.80;95.70;;;;;;9184594;19;20074;-72
2022/07/06 13:01:28;;;;;;;2.78;0.90;;;18.80;95.50;;;;;;9176645;19;20018;-72
2022/07/06 13:04:34;;;;;;;2.50;0.90;;;18.90;95.60;;;;;;9175803;19;20023;-72
2022/07/06 13:07:41;;;;;;;2.78;0.90;;;19.00;95.00;;;;;;9176813;19;20015;-72
2022/07/06 13:10:45;;;;;;;3.83;1.13;;;18.90;94.90;;;;;;9183310;19;20021;-72
2022/07/06 13:13:51;;;;;;;3.40;1.08;;;18.80;95.00;;;;;;9175507;19;20051;-72
2022/07/06 13:16:56;;;;;;;2.10;0.80;;;18.50;94.90;;;;;;9180201;19;20507;-71
2022/07/06 13:20:02;;;;;;;3.77;1.00;;;18.50;95.00;;;;;;9175848;19;20113;-71
2022/07/06 13:23:06;;;;;;;2.15;0.88;;;18.50;94.90;;;;;;9178995;19;20492;-71
2022/07/06 13:26:11;;;;;;;2.92;0.80;;;18.60;95.20;;;;;;9174579;19;20022;-71
2022/07/06 13:29:17;;;;;;;4.78;1.08;;;18.50;94.60;;;;;;9177734;19;20047;-72
2022/07/06 13:32:21;;;;;;;4.18;0.98;;;18.30;94.30;;;;;;9179059;19;20357;-72
2022/07/06 13:35:25;;;;;;;4.90;0.80;;;18.30;94.70;;;;;;9178828;19;20022;-72
2022/07/06 13:38:29;;;;;;;2.75;0.80;;;18.40;94.70;;;;;;9183103;19;20022;-72
2022/07/06 13:41:33;;;;;;;2.50;1.20;;;18.20;95.20;;;;;;9179383;19;20062;-71
2022/07/06 13:44:40;;;;;;;3.15;1.00;;;18.30;95.40;;;;;;9183088;19;20021;-72
2022/07/06 13:47:44;;;;;;;2.45;0.80;;;18.20;95.20;;;;;;9182235;19;20605;-71
2022/07/06 13:50:48;;;;;;;1.75;0.82;;;18.30;95.30;;;;;;9177855;19;20507;-72
2022/07/06 13:53:53;;;;;;;4.28;0.80;;;18.50;94.80;;;;;;9177841;19;20043;-71
2022/07/06 13:56:57;;;;;;;2.40;0.90;;;18.40;95.00;;;;;;9179336;19;20006;-71
2022/07/06 14:00:03;;;;;;;3.63;1.05;;;18.30;95.50;;;;;;9177699;19;20014;-70
2022/07/06 14:03:08;;;;;;;2.60;1.05;;;18.30;95.50;;;;;;9175511;19;20010;-70
2022/07/06 14:06:13;;;;;;;5.65;1.20;;;18.10;95.60;;;;;;9174840;19;20029;-71
2022/07/06 14:09:17;;;;;;;4.18;1.10;;;18.10;95.80;;;;;;9180198;19;20368;-70
2022/07/06 14:12:23;;;;;;;2.88;1.23;;;18.10;95.90;;;;;;9177121;19;20486;-70
2022/07/06 14:15:30;;;;;;;4.78;1.15;;;18.20;95.70;;;;;;9174381;19;20014;-70
2022/07/06 14:18:34;;;;;;;1.80;0.90;;;18.30;95.70;;;;;;9180122;19;20078;-70
2022/07/06 14:21:38;;;;;;;4.32;1.10;;;18.20;95.90;;;;;;9175632;19;20023;-71
2022/07/06 14:24:42;;;;;;;2.03;1.00;;;18.10;95.40;;;;;;9178186;19;20078;-70
2022/07/06 14:27:46;;;;;;;4.80;1.50;;;18.10;95.60;;;;;;9173296;19;20664;-70
2022/07/06 14:30:52;;;;;;;3.60;1.20;;;18.00;94.70;;;;;;9177412;19;20014;-71
2022/07/06 14:33:56;;;;;;;2.10;1.00;;;17.80;95.30;;;;;;9173019;19;20014;-71
2022/07/06 14:37:00;;;;;;;2.08;1.10;;;18.00;95.60;;;;;;9178712;19;20019;-71
2022/07/06 14:40:05;;;;;;;1.75;1.02;;;17.90;96.20;;;;;;9181625;19;20356;-70
2022/07/06 14:43:09;;;;;;;3.05;0.90;;;17.90;96.70;;;;;;9178949;19;20019;-70
2022/07/06 14:46:16;;;;;;;1.38;0.90;;;17.80;96.60;;;;;;9175722;19;20082;-70
2022/07/06 14:49:20;;;;;;;5.50;1.30;;;17.80;96.80;;;;;;9178334;19;20022;-70
2022/07/06 14:52:24;;;;;;;2.20;1.00;;;17.60;97.00;;;;;;9176235;19;20091;-70
2022/07/06 14:55:28;;;;;;;4.32;1.08;;;17.70;97.10;;;;;;9175756;19;20007;-70
2022/07/06 14:58:31;;;;;;;3.88;1.00;;;17.60;97.50;;;;;;9180380;19;20032;-72
2022/07/06 15:01:38;;;;;;;3.25;1.20;;;17.70;97.40;;;;;;9173951;19;20023;-71
2022/07/06 15:04:43;;;;;;;3.35;1.33;;;17.60;97.60;;;;;;9176271;19;20487;-70
2022/07/06 15:07:47;;;;;;;4.68;1.20;;;17.50;97.70;;;;;;9177904;19;20015;-69
2022/07/06 15:10:51;;;;;;;3.38;1.10;;;17.60;97.80;;;;;;9173125;19;20022;-70
2022/07/06 15:13:55;;;;;;;4.55;1.50;;;17.50;98.00;;;;;;9177338;19;20010;-74
2022/07/06 15:17:02;;;;;;;2.38;1.00;;;17.40;98.30;;;;;;9186223;19;20468;-73
2022/07/06 15:20:07;;;;;;;1.90;1.10;;;17.10;98.60;;;;;;9183032;19;20015;-72
2022/07/06 15:23:11;;;;;;;3.08;1.33;;;17.30;98.60;;;;;;9181390;19;20014;-72
2022/07/06 15:26:15;;;;;;;4.22;1.35;;;17.20;98.50;;;;;;9184130;19;20475;-71
2022/07/06 15:29:19;;;;;;;4.82;1.00;;;17.30;98.80;;;;;;9182988;19;20021;-71
2022/07/06 15:32:26;;;;;;;5.13;1.17;;;17.20;98.80;;;;;;9180046;19;20010;-72
2022/07/06 15:35:30;;;;;;;4.47;1.20;;;17.30;99.20;;;;;;9181650;19;20051;-74
2022/07/06 15:38:34;;;;;;;4.18;1.52;;;17.30;98.90;;;;;;9181318;19;20010;-72
2022/07/06 15:41:38;;;;;;;4.50;1.77;;;17.40;98.70;;;;;;9181740;19;20022;-72
2022/07/06 15:44:42;;;;;;;1.92;1.30;;;17.50;99.10;;;;;;9186770;19;20362;-71
2022/07/06 15:47:49;;;;;;;4.10;1.30;;;17.30;99.20;;;;;;9181293;19;20029;-72
2022/07/06 15:50:53;;;;;;;3.88;1.38;;;17.40;99.90;;;;;;9182353;19;20550;-77
2022/07/06 15:53:57;;;;;;;2.08;1.48;;;17.40;99.60;;;;;;9184655;19;20015;-75
2022/07/06 15:57:01;;;;;;;3.45;1.38;;;17.10;99.80;;;;;;9181130;19;20479;-73
2022/07/06 16:00:07;;;;;;;4.90;1.70;;;17.10;99.90;;;;;;9181575;19;20019;-73
2022/07/06 16:03:13;;;;;;;5.57;2.35;;;17.10;99.90;;;;;;9180496;19;20018;-81
2022/07/06 16:06:18;;;;;;;5.22;2.40;;;16.80;99.90;;;;;;9184370;19;20542;-72
2022/07/06 16:09:22;;;;;;;3.85;2.47;;;16.80;99.90;;;;;;9179795;19;20018;-74
2022/07/06 16:12:26;;;;;;;4.10;2.58;;;16.40;99.90;;;;;;9180896;19;20040;-73
2022/07/06 16:15:31;;;;;;;4.88;2.47;;;16.30;99.90;;;;;;9183495;19;20483;-76